Time;durP1;ratioP1;P1;durP2;ratioP2;P2;SDS_P1;SDS_P2;PMS_P1;PMS_P2;Temp;Humidity;BMP_temperature;BMP_pressure;BME280_temperature;BME280_humidity;BME280_pressure;Samples;Min_cycle;Max_cycle;Signal;HPM_P1;HPM_P2
2021/01/31 00:01:15;;;;;;;10.75;5.93;;;;;;;6.42;63.42;99172.41;4993153;28;20153;-80
2021/01/31 00:03:40;;;;;;;13.25;5.70;;;;;;;6.30;63.77;99163.66;4998835;28;20136;-80
2021/01/31 00:06:06;;;;;;;18.95;5.85;;;;;;;6.57;62.95;99179.16;4996286;28;20057;-80
2021/01/31 00:08:31;;;;;;;13.95;5.10;;;;;;;6.63;62.59;99188.31;4996088;28;20030;-80
2021/01/31 00:10:58;;;;;;;13.80;5.03;;;;;;;6.60;63.64;99194.59;4996000;28;20030;-80
2021/01/31 00:13:26;;;;;;;14.10;5.63;;;;;;;6.84;62.95;99206.81;4995909;28;20034;-80
2021/01/31 00:15:52;;;;;;;12.00;4.97;;;;;;;6.35;63.29;99211.94;5005627;28;20512;-81
2021/01/31 00:18:24;;;;;;;9.35;4.80;;;;;;;6.31;63.43;99217.47;5015423;28;20029;-81
2021/01/31 00:20:52;;;;;;;12.13;4.32;;;;;;;6.48;63.43;99211.94;5015459;28;20052;-80
2021/01/31 00:23:18;;;;;;;20.25;4.53;;;;;;;6.78;61.89;99202.06;5015479;28;20037;-81
2021/01/31 00:25:44;;;;;;;10.88;4.30;;;;;;;6.49;62.85;99210.16;5015417;28;20025;-79
2021/01/31 00:28:11;;;;;;;19.33;5.70;;;;;;;6.52;63.10;99207.34;5015265;28;20037;-80
2021/01/31 00:30:39;;;;;;;10.85;3.78;;;;;;;6.58;62.91;99217.34;5005328;28;20037;-81
2021/01/31 00:33:12;;;;;;;12.07;4.88;;;;;;;6.60;62.92;99219.84;4995488;28;20033;-80
2021/01/31 00:35:39;;;;;;;15.65;4.90;;;;;;;6.46;63.12;99226.84;4995799;28;20038;-80
2021/01/31 00:38:05;;;;;;;14.07;3.97;;;;;;;6.54;62.90;99227.16;4995505;28;20027;-80
2021/01/31 00:40:31;;;;;;;13.23;4.47;;;;;;;6.48;61.95;99217.16;4995390;28;20058;-80
2021/01/31 00:42:56;;;;;;;10.45;3.70;;;;;;;6.69;62.45;99238.25;4995551;28;20057;-80
2021/01/31 00:45:23;;;;;;;12.80;3.88;;;;;;;6.63;62.40;99243.09;4997277;28;20591;-80
2021/01/31 00:47:49;;;;;;;13.82;4.57;;;;;;;6.49;63.32;99246.66;4995259;28;20500;-81
2021/01/31 00:50:17;;;;;;;11.10;3.95;;;;;;;6.51;62.13;99247.38;4983975;23;20047;-81
2021/01/31 00:52:42;;;;;;;9.52;2.80;;;;;;;6.65;62.52;99252.47;4956567;28;20396;-81
2021/01/31 00:55:08;;;;;;;11.95;4.00;;;;;;;6.73;61.72;99254.53;4956585;29;20031;-81
2021/01/31 00:57:34;;;;;;;7.97;2.88;;;;;;;6.55;62.29;99259.28;4956553;28;20478;-81
2021/01/31 00:59:59;;;;;;;12.38;3.67;;;;;;;6.73;61.44;99258.00;4955745;28;20027;-81
2021/01/31 01:02:24;;;;;;;7.38;3.25;;;;;;;6.39;62.16;99261.28;4954717;29;20174;-81
2021/01/31 01:04:50;;;;;;;10.45;3.33;;;;;;;6.74;61.72;99259.66;4937195;29;20038;-81
2021/01/31 01:07:17;;;;;;;9.90;3.38;;;;;;;6.64;62.45;99252.59;4937353;29;20079;-81
2021/01/31 01:09:44;;;;;;;8.70;3.25;;;;;;;6.10;62.76;99258.88;4937122;29;20036;-82
2021/01/31 01:12:10;;;;;;;18.55;3.40;;;;;;;6.59;62.49;99255.50;4935603;29;20042;-81
2021/01/31 01:14:36;;;;;;;14.27;3.05;;;;;;;6.63;62.32;99245.69;4936761;29;20028;-81
2021/01/31 01:17:02;;;;;;;11.82;3.00;;;;;;;6.41;62.44;99254.19;4937341;29;20553;-81
2021/01/31 01:19:29;;;;;;;7.90;2.95;;;;;;;6.37;62.27;99240.53;4938045;29;20087;-81
2021/01/31 01:21:55;;;;;;;13.10;2.97;;;;;;;6.22;62.21;99246.78;4936943;29;20115;-81
2021/01/31 01:24:20;;;;;;;11.68;2.97;;;;;;;6.02;62.21;99237.72;4936995;29;20024;-81
2021/01/31 01:26:46;;;;;;;13.88;2.70;;;;;;;5.90;62.35;99236.75;4936926;29;20118;-81
2021/01/31 01:29:12;;;;;;;10.82;2.67;;;;;;;6.08;62.38;99229.47;4950086;29;20055;-81
2021/01/31 01:31:38;;;;;;;8.13;2.30;;;;;;;6.20;62.46;99218.25;4955743;28;20023;-81
2021/01/31 01:34:04;;;;;;;11.07;2.45;;;;;;;6.23;61.65;99219.78;4955844;29;20054;-81
2021/01/31 01:36:30;;;;;;;8.93;2.95;;;;;;;6.02;62.68;99216.88;4949872;28;20028;-81
2021/01/31 01:38:55;;;;;;;14.38;4.10;;;;;;;6.11;61.71;99216.25;4936418;29;20024;-80
2021/01/31 01:41:21;;;;;;;10.40;2.72;;;;;;;6.13;62.11;99216.97;4936698;29;20071;-81
2021/01/31 01:43:53;;;;;;;10.85;2.63;;;;;;;5.95;61.32;99217.28;4945771;29;20042;-82
2021/01/31 01:46:18;;;;;;;;;;;;;;;5.78;61.08;99227.97;4956247;29;20031;-81
2021/01/31 01:48:56;;;;;;;9.10;2.22;;;;;;;5.52;62.91;99227.13;4956038;28;19922;-81
2021/01/31 01:51:31;;;;;;;8.80;2.42;;;;;;;5.45;61.90;99231.91;4955722;28;20075;-81
2021/01/31 01:53:59;;;;;;;12.88;2.58;;;;;;;5.22;63.27;99229.97;4940871;29;20028;-81
2021/01/31 01:56:37;;;;;;;18.23;2.63;;;;;;;5.35;62.90;99231.66;4936348;29;20066;-82
2021/01/31 01:59:03;;;;;;;9.32;2.17;;;;;;;5.56;61.84;99239.81;4936038;29;20079;-80
2021/01/31 02:01:30;;;;;;;20.65;2.85;;;;;;;5.59;62.22;99253.56;4936154;29;20027;-82
2021/01/31 02:04:00;;;;;;;9.10;2.47;;;;;;;5.48;61.32;99247.31;4937276;29;20034;-81
2021/01/31 02:06:28;;;;;;;10.02;2.42;;;;;;;5.42;61.82;99260.72;4936140;29;20027;-81
2021/01/31 02:08:55;;;;;;;13.18;3.13;;;;;;;5.52;61.24;99261.78;4935890;29;20062;-81
2021/01/31 02:11:23;;;;;;;10.50;2.03;;;;;;;5.55;61.57;99269.41;4939922;29;20026;-81
2021/01/31 02:13:53;;;;;;;7.50;1.90;;;;;;;5.51;61.61;99267.94;4955178;29;20490;-81
2021/01/31 02:17:03;;;;;;;16.58;2.83;;;;;;;5.57;61.18;99283.16;4955560;28;20059;-81
2021/01/31 02:19:47;;;;;;;7.35;2.42;;;;;;;5.27;61.71;99287.72;4933296;29;20390;-81
2021/01/31 02:22:33;;;;;;;9.70;2.22;;;;;;;5.44;61.79;99287.50;4953100;28;20098;-81
2021/01/31 02:25:13;;;;;;;13.80;2.83;;;;;;;5.14;61.79;99292.91;4954959;28;20033;-81
2021/01/31 02:28:02;;;;;;;6.72;2.05;;;;;;;5.29;61.64;99301.47;4937836;28;20047;-81
2021/01/31 02:30:39;;;;;;;7.10;1.90;;;;;;;5.04;63.03;99300.44;4935258;29;20115;-82
2021/01/31 02:33:25;;;;;;;9.07;2.08;;;;;;;5.23;62.40;99304.47;4935413;29;20449;-82
2021/01/31 02:35:59;;;;;;;4.53;2.20;;;;;;;5.21;61.78;99307.16;4935677;29;20031;-82
2021/01/31 02:38:33;;;;;;;10.27;2.25;;;;;;;4.85;62.16;99305.94;4935850;29;20463;-81
2021/01/31 02:41:05;;;;;;;8.55;2.47;;;;;;;4.52;63.81;99308.84;4938539;29;20039;-82
2021/01/31 02:43:44;;;;;;;8.57;2.13;;;;;;;4.80;64.04;99301.94;4946015;28;20062;-82
2021/01/31 02:46:35;;;;;;;6.68;1.70;;;;;;;4.61;64.06;99284.91;4935436;29;20078;-81
2021/01/31 02:49:05;;;;;;;7.10;2.00;;;;;;;4.70;63.26;99276.53;4935782;29;20032;-81
2021/01/31 02:51:37;;;;;;;7.13;2.03;;;;;;;4.85;62.82;99266.09;4935215;29;20038;-81
2021/01/31 02:54:39;;;;;;;5.45;1.85;;;;;;;4.87;62.71;99267.66;4935295;29;20504;-80
2021/01/31 02:57:20;;;;;;;10.63;2.13;;;;;;;4.88;62.32;99255.53;4917471;29;20035;-81
2021/01/31 03:00:00;;;;;;;11.18;2.25;;;;;;;4.99;61.31;99262.63;4954149;28;20082;-81
2021/01/31 03:02:31;;;;;;;5.75;1.92;;;;;;;4.69;61.37;99248.03;4954475;28;20054;-82
2021/01/31 03:05:22;;;;;;;12.00;1.97;;;;;;;4.82;61.43;99242.88;4954488;28;20169;-81
2021/01/31 03:07:57;;;;;;;7.45;1.80;;;;;;;4.59;62.14;99252.97;4953508;28;20031;-81
2021/01/31 03:10:37;;;;;;;5.15;2.10;;;;;;;4.73;61.18;99255.53;4954165;28;20031;-82
2021/01/31 03:13:21;;;;;;;14.13;2.30;;;;;;;4.68;61.99;99257.59;4953991;29;20059;-79
2021/01/31 03:16:04;;;;;;;11.88;2.25;;;;;;;4.83;61.94;99261.00;4953979;29;20043;-81
2021/01/31 03:18:36;;;;;;;4.78;1.65;;;;;;;4.59;61.55;99252.13;4953499;28;20058;-81
2021/01/31 03:21:08;;;;;;;7.95;1.58;;;;;;;4.54;61.14;99255.00;4953885;28;20023;-81
2021/01/31 03:23:49;;;;;;;7.07;2.10;;;;;;;4.68;60.44;99251.53;4952329;28;20369;-81
2021/01/31 03:26:32;;;;;;;11.10;2.05;;;;;;;4.72;61.39;99250.41;4953876;28;20035;-81
2021/01/31 03:28:57;;;;;;;11.75;1.90;;;;;;;4.75;61.50;99247.63;4953917;28;20030;-81
2021/01/31 03:31:26;;;;;;;6.78;1.50;;;;;;;4.27;60.69;99228.94;4953705;28;20027;-81
2021/01/31 03:34:01;;;;;;;6.30;1.77;;;;;;;4.25;61.66;99223.00;4954139;29;20074;-81
2021/01/31 03:36:28;;;;;;;7.47;1.77;;;;;;;4.25;61.06;99225.59;4953757;28;20070;-81
2021/01/31 03:38:56;;;;;;;9.10;2.00;;;;;;;4.08;62.48;99231.81;4947455;28;20519;-81
2021/01/31 03:41:26;;;;;;;4.97;1.35;;;;;;;4.40;61.97;99227.25;4934538;29;20090;-81
2021/01/31 03:43:51;;;;;;;6.65;1.60;;;;;;;4.37;60.99;99217.88;4934681;29;20031;-81
2021/01/31 03:46:41;;;;;;;8.52;2.13;;;;;;;4.36;61.86;99215.38;4934489;29;20032;-81
2021/01/31 03:49:13;;;;;;;8.52;1.92;;;;;;;4.51;61.89;99218.81;4946436;23;20030;-81
2021/01/31 03:51:39;;;;;;;6.05;1.85;;;;;;;4.25;61.36;99220.41;4915265;29;20048;-80
2021/01/31 03:54:06;;;;;;;8.82;2.00;;;;;;;4.46;61.32;99211.28;4914690;29;20024;-80
2021/01/31 03:56:36;;;;;;;3.67;1.27;;;;;;;4.29;60.83;99225.31;4915367;29;20057;-80
2021/01/31 03:59:05;;;;;;;9.95;1.92;;;;;;;4.47;61.54;99212.13;4915430;29;20401;-80
2021/01/31 04:01:36;;;;;;;12.23;1.90;;;;;;;3.87;62.16;99216.59;4915438;29;20032;-80
2021/01/31 04:04:18;;;;;;;5.85;1.48;;;;;;;4.18;62.57;99212.13;4915523;29;20047;-80
2021/01/31 04:06:47;;;;;;;10.45;1.90;;;;;;;4.10;62.71;99215.19;4915472;29;20028;-80
2021/01/31 04:09:15;;;;;;;4.57;1.33;;;;;;;4.23;61.50;99223.09;4914511;29;20044;-80
2021/01/31 04:11:43;;;;;;;13.85;2.15;;;;;;;4.20;61.67;99227.63;4907175;29;20033;-80
2021/01/31 04:14:24;;;;;;;13.18;1.92;;;;;;;4.12;61.02;99222.91;4896401;29;20036;-80
2021/01/31 04:16:50;;;;;;;9.70;1.65;;;;;;;4.37;61.82;99230.88;4896453;29;20066;-80
2021/01/31 04:19:18;;;;;;;7.53;1.48;;;;;;;4.14;61.92;99239.22;4895105;29;20372;-80
2021/01/31 04:21:44;;;;;;;10.35;2.03;;;;;;;4.40;62.13;99235.03;4896364;29;20339;-80
2021/01/31 04:24:09;;;;;;;6.72;1.70;;;;;;;4.35;60.93;99235.34;4896125;29;20280;-81
2021/01/31 04:26:35;;;;;;;8.98;1.77;;;;;;;4.36;61.36;99236.16;4904325;29;20028;-81
2021/01/31 04:29:01;;;;;;;7.32;2.13;;;;;;;4.10;61.25;99235.16;4915161;29;20521;-80
2021/01/31 04:31:28;;;;;;;8.70;1.90;;;;;;;4.21;60.70;99232.75;4915166;29;20036;-80
2021/01/31 04:33:53;;;;;;;8.43;2.25;;;;;;;4.26;61.85;99241.09;4914990;29;20092;-80
2021/01/31 04:36:20;;;;;;;7.28;2.00;;;;;;;4.51;61.38;99235.22;4915537;29;20040;-80
2021/01/31 04:38:45;;;;;;;13.45;2.13;;;;;;;4.15;61.62;99233.94;4915008;29;20064;-80
2021/01/31 04:41:10;;;;;;;9.63;1.95;;;;;;;4.29;61.27;99233.13;4911846;29;20487;-80
2021/01/31 04:43:36;;;;;;;6.80;2.05;;;;;;;4.35;61.63;99226.72;4915120;29;20040;-80
2021/01/31 04:46:02;;;;;;;5.97;1.92;;;;;;;4.24;61.73;99229.13;4915174;29;20032;-80
2021/01/31 04:48:37;;;;;;;10.50;1.75;;;;;;;4.13;61.94;99217.63;4914975;29;20020;-80
2021/01/31 04:51:24;;;;;;;8.38;2.20;;;;;;;4.20;61.71;99209.44;4917918;29;20032;-80
2021/01/31 04:53:53;;;;;;;9.13;1.75;;;;;;;4.21;62.37;99205.94;4918229;29;20071;-81
2021/01/31 04:57:01;;;;;;;7.88;1.83;;;;;;;3.97;63.11;99196.94;4916753;29;20032;-80
2021/01/31 04:59:29;;;;;;;7.57;1.80;;;;;;;3.95;62.25;99192.75;4899462;29;20119;-80
2021/01/31 05:02:03;;;;;;;14.98;2.38;;;;;;;3.85;63.27;99186.44;4918230;29;20044;-80
2021/01/31 05:04:30;;;;;;;6.97;1.98;;;;;;;3.82;62.65;99179.66;4918389;29;20028;-80
2021/01/31 05:07:02;;;;;;;8.95;1.85;;;;;;;4.05;62.51;99172.22;4918247;29;20099;-80
2021/01/31 05:09:28;;;;;;;4.63;1.58;;;;;;;4.07;63.17;99173.84;4917980;29;20546;-81
2021/01/31 05:12:12;;;;;;;8.40;1.88;;;;;;;4.02;62.33;99172.44;4905102;29;20128;-80
2021/01/31 05:15:08;;;;;;;8.35;1.67;;;;;;;3.98;61.62;99183.00;4899202;29;20083;-80
2021/01/31 05:17:34;;;;;;;14.55;1.90;;;;;;;4.15;62.24;99184.59;4899295;29;20101;-81
2021/01/31 05:20:06;;;;;;;9.35;1.77;;;;;;;4.16;61.99;99193.22;4899054;29;20044;-80
2021/01/31 05:22:37;;;;;;;8.30;2.28;;;;;;;4.05;61.61;99196.47;4899080;29;20320;-80
2021/01/31 05:25:02;;;;;;;5.55;1.65;;;;;;;4.00;62.46;99205.47;4899124;29;20024;-79
2021/01/31 05:27:32;;;;;;;13.38;2.20;;;;;;;4.15;62.02;99207.97;4917590;29;20159;-80
2021/01/31 05:29:58;;;;;;;8.07;1.77;;;;;;;4.30;61.65;99206.19;4917703;29;20035;-80
2021/01/31 05:32:23;;;;;;;12.07;2.17;;;;;;;4.20;62.29;99199.88;4917642;29;20463;-80
2021/01/31 05:34:52;;;;;;;6.97;1.52;;;;;;;4.34;61.86;99207.69;4917719;29;20039;-80
2021/01/31 05:37:26;;;;;;;3.45;1.52;;;;;;;4.02;62.47;99207.03;4917658;29;20024;-80
2021/01/31 05:39:56;;;;;;;17.58;1.60;;;;;;;3.96;62.30;99192.66;4916569;29;20492;-80
2021/01/31 05:42:35;;;;;;;9.95;4.00;;;;;;;4.23;62.15;99178.94;4898776;29;20033;-81
2021/01/31 05:45:13;;;;;;;7.03;1.70;;;;;;;3.96;63.23;99168.44;4897357;29;20028;-80
2021/01/31 05:47:42;;;;;;;5.72;1.67;;;;;;;4.03;63.38;99155.91;4898729;29;20115;-80
2021/01/31 05:50:35;;;;;;;7.80;1.50;;;;;;;3.96;62.82;99153.69;4914428;29;20036;-80
2021/01/31 05:53:20;;;;;;;8.70;1.88;;;;;;;4.20;62.39;99150.53;4931727;29;20059;-81
2021/01/31 05:55:45;;;;;;;6.28;1.63;;;;;;;3.89;62.45;99144.63;4917306;29;20595;-80
2021/01/31 05:58:17;;;;;;;9.85;2.05;;;;;;;3.71;63.41;99148.31;4917329;29;20196;-79
2021/01/31 06:00:44;;;;;;;4.40;1.75;;;;;;;3.68;63.48;99148.50;4916527;29;20063;-80
2021/01/31 06:03:11;;;;;;;9.07;1.90;;;;;;;4.00;63.36;99145.72;4916119;29;20070;-79
2021/01/31 06:05:38;;;;;;;8.32;2.80;;;;;;;3.95;62.63;99159.81;4916951;29;20356;-80
2021/01/31 06:08:27;;;;;;;7.03;1.67;;;;;;;3.72;63.55;99163.78;4917105;29;20027;-81
2021/01/31 06:11:19;;;;;;;10.45;2.10;;;;;;;3.70;63.85;99167.41;4916990;29;20032;-80
2021/01/31 06:13:46;;;;;;;11.90;1.90;;;;;;;3.81;63.54;99159.84;4914048;29;20044;-80
2021/01/31 06:16:20;;;;;;;9.27;2.08;;;;;;;3.54;63.96;99175.28;4916500;29;20036;-81
2021/01/31 06:19:00;;;;;;;10.73;2.45;;;;;;;3.73;64.05;99180.19;4916738;29;20035;-81
2021/01/31 06:21:44;;;;;;;5.25;1.60;;;;;;;3.80;63.68;99170.31;4916779;29;20530;-80
2021/01/31 06:24:29;;;;;;;9.77;1.83;;;;;;;3.60;64.42;99180.09;4916914;29;20087;-80
2021/01/31 06:26:57;;;;;;;9.57;2.03;;;;;;;3.76;63.17;99174.84;4916382;29;20068;-81
2021/01/31 06:29:37;;;;;;;4.00;1.80;;;;;;;3.80;63.45;99168.53;4916527;29;20028;-80
2021/01/31 06:32:11;;;;;;;5.90;1.90;;;;;;;3.65;63.79;99152.09;4916662;29;20111;-81
2021/01/31 06:34:44;;;;;;;7.72;2.10;;;;;;;3.69;63.85;99138.03;4916691;29;20119;-80
2021/01/31 06:37:37;;;;;;;6.75;1.65;;;;;;;3.72;63.79;99129.22;4916793;29;20067;-80
2021/01/31 06:40:27;;;;;;;8.10;2.00;;;;;;;3.54;63.94;99113.81;4914945;29;20074;-81
2021/01/31 06:43:07;;;;;;;20.15;2.85;;;;;;;3.57;64.86;99108.44;4916613;29;20135;-80
2021/01/31 06:45:40;;;;;;;7.72;2.72;;;;;;;3.52;65.01;99105.28;4916113;29;20028;-80
2021/01/31 06:48:25;;;;;;;8.20;1.85;;;;;;;3.61;64.32;99105.66;4916517;29;20087;-81
2021/01/31 06:51:23;;;;;;;13.30;3.03;;;;;;;3.61;64.70;99098.69;4916720;29;20035;-80
2021/01/31 06:54:44;;;;;;;6.85;1.67;;;;;;;3.51;64.70;99103.59;4916129;29;20036;-80
2021/01/31 06:57:16;;;;;;;7.28;2.83;;;;;;;3.54;64.76;99102.59;4899704;29;20384;-80
2021/01/31 06:59:59;;;;;;;5.10;2.20;;;;;;;3.50;64.86;99096.75;4916027;29;20472;-80
2021/01/31 07:02:44;;;;;;;5.00;2.00;;;;;;;3.46;64.17;99095.28;4914990;29;20040;-80
2021/01/31 07:05:28;;;;;;;4.65;2.42;;;;;;;3.88;63.14;99091.00;4916353;29;20435;-80
2021/01/31 07:07:58;;;;;;;10.43;2.15;;;;;;;3.68;63.96;99092.22;4915988;29;20032;-80
2021/01/31 07:10:41;;;;;;;5.65;2.17;;;;;;;3.72;63.64;99096.28;4900164;29;20455;-80
2021/01/31 07:13:31;;;;;;;10.13;2.20;;;;;;;3.97;61.97;99105.19;4896700;29;20076;-80
2021/01/31 07:16:13;;;;;;;2.83;1.77;;;;;;;3.87;62.48;99110.13;4896990;29;20028;-80
2021/01/31 07:18:49;;;;;;;8.13;2.15;;;;;;;3.94;63.43;99107.97;4896931;29;20056;-80
2021/01/31 07:21:27;;;;;;;7.47;1.58;;;;;;;3.72;63.23;99096.28;4896720;29;20029;-80
2021/01/31 07:23:58;;;;;;;9.77;2.05;;;;;;;4.15;61.62;99083.28;4901981;29;20063;-80
2021/01/31 07:26:33;;;;;;;9.77;2.90;;;;;;;4.13;61.96;99079.09;4914686;29;20111;-79
2021/01/31 07:29:03;;;;;;;7.40;1.98;;;;;;;3.87;62.50;99085.91;4915756;29;20032;-80
2021/01/31 07:31:46;;;;;;;10.90;1.90;;;;;;;3.77;62.90;99089.06;4915803;29;20051;-79
2021/01/31 07:34:15;;;;;;;10.65;2.05;;;;;;;4.07;61.26;99095.06;4913809;29;20076;-81
2021/01/31 07:37:05;;;;;;;8.40;1.92;;;;;;;3.95;62.91;99092.31;4896850;29;20088;-81
2021/01/31 07:39:54;;;;;;;8.30;1.73;;;;;;;3.69;63.00;99090.44;4896501;29;20464;-80
2021/01/31 07:42:21;;;;;;;10.48;2.00;;;;;;;3.90;62.61;99083.13;4896679;29;20551;-80
2021/01/31 07:44:48;;;;;;;8.38;2.13;;;;;;;4.14;62.42;99080.75;4896910;29;20031;-81
2021/01/31 07:47:13;;;;;;;11.77;2.05;;;;;;;4.05;62.09;99083.91;4899249;29;20475;-81
2021/01/31 07:49:55;;;;;;;7.93;1.90;;;;;;;4.01;62.29;99079.84;4915745;29;20032;-80
2021/01/31 07:52:22;;;;;;;9.93;2.20;;;;;;;4.29;61.74;99087.59;4915389;29;20032;-80
2021/01/31 07:54:47;;;;;;;7.10;1.85;;;;;;;4.39;61.02;99090.44;4915457;29;20597;-80
2021/01/31 07:57:37;;;;;;;4.80;3.00;;;;;;;4.42;60.69;99089.41;4913278;29;20311;-80
2021/01/31 08:00:16;;;;;;;8.43;1.88;;;;;;;4.49;61.00;99088.09;4896279;29;20052;-80
2021/01/31 08:02:45;;;;;;;8.95;1.85;;;;;;;4.48;60.67;99089.88;4913134;29;20122;-81
2021/01/31 08:05:34;;;;;;;4.07;2.33;;;;;;;4.52;61.42;99101.75;4915172;29;20481;-80
2021/01/31 08:08:07;;;;;;;12.35;3.67;;;;;;;4.55;60.96;99095.50;4910593;29;20032;-80
2021/01/31 08:10:51;;;;;;;11.25;2.40;;;;;;;4.60;60.91;99096.06;4897866;29;20029;-80
2021/01/31 08:13:38;;;;;;;9.52;2.88;;;;;;;4.62;61.40;99102.00;4903278;29;20088;-80
2021/01/31 08:16:41;;;;;;;4.78;1.70;;;;;;;4.79;60.52;99095.69;4895421;29;20067;-80
2021/01/31 08:19:09;;;;;;;7.13;1.80;;;;;;;4.85;60.95;99094.44;4896233;29;20513;-80
2021/01/31 08:22:11;;;;;;;5.35;1.80;;;;;;;4.76;60.96;99083.72;4907206;29;20098;-80
2021/01/31 08:24:55;;;;;;;;;;;;;;;4.75;59.79;99089.84;4912301;29;20068;-83
2021/01/31 08:27:42;;;;;;;5.70;1.90;;;;;;;4.86;59.82;99086.56;4918361;29;19926;-81
2021/01/31 08:30:13;;;;;;;12.02;2.78;;;;;;;4.93;59.75;99094.78;4918513;29;20032;-81
2021/01/31 08:33:00;;;;;;;5.75;2.40;;;;;;;5.01;60.70;99102.91;4911311;29;20105;-81
2021/01/31 08:35:30;;;;;;;7.78;2.50;;;;;;;4.94;59.97;99101.66;4918073;29;20122;-81
2021/01/31 08:38:31;;;;;;;9.73;2.15;;;;;;;5.14;60.62;99103.78;4916669;29;20028;-81
2021/01/31 08:41:02;;;;;;;15.07;5.53;;;;;;;5.14;60.64;99103.78;4916614;29;20028;-81
2021/01/31 08:43:45;;;;;;;7.15;1.58;;;;;;;5.12;60.11;99087.44;4916990;29;20391;-81
2021/01/31 08:46:22;;;;;;;5.20;2.00;;;;;;;5.31;59.88;99084.44;4899332;29;20107;-80
2021/01/31 08:48:55;;;;;;;7.22;2.30;;;;;;;5.30;58.84;99069.75;4914655;29;20028;-81
2021/01/31 08:51:21;;;;;;;14.80;2.28;;;;;;;5.31;59.70;99068.81;4916941;29;20028;-81
2021/01/31 08:54:19;;;;;;;11.20;2.33;;;;;;;5.20;59.58;99047.06;4921674;29;20032;-80
2021/01/31 08:56:47;;;;;;;8.48;1.90;;;;;;;5.48;59.36;99031.22;4900667;29;20076;-80
2021/01/31 08:59:22;;;;;;;5.45;2.17;;;;;;;5.47;58.76;99026.97;4936961;29;20032;-82
2021/01/31 09:01:52;;;;;;;6.95;1.90;;;;;;;5.39;58.53;99034.47;4917176;29;20032;-80
2021/01/31 09:04:20;;;;;;;14.88;3.15;;;;;;;5.00;59.79;99033.63;4907296;29;20108;-80
2021/01/31 09:06:48;;;;;;;9.45;2.47;;;;;;;5.37;59.35;99028.50;4914244;29;20495;-79
2021/01/31 09:09:28;;;;;;;6.82;2.25;;;;;;;5.55;58.41;99035.06;4919634;29;20056;-79
2021/01/31 09:11:56;;;;;;;8.07;1.95;;;;;;;5.51;58.85;99032.78;4917639;29;20017;-81
2021/01/31 09:14:40;;;;;;;13.52;2.40;;;;;;;5.54;58.46;99024.75;4911783;29;20032;-81
2021/01/31 09:17:21;;;;;;;9.02;2.13;;;;;;;5.81;58.56;99019.41;4917034;29;20038;-81
2021/01/31 09:19:47;;;;;;;3.45;1.67;;;;;;;5.39;57.97;99008.44;4916225;29;20028;-81
2021/01/31 09:22:20;;;;;;;5.32;2.20;;;;;;;5.32;59.17;99012.41;4910630;29;20120;-81
2021/01/31 09:24:56;;;;;;;4.38;2.00;;;;;;;5.03;58.66;98996.97;4909764;29;20582;-81
2021/01/31 09:27:24;;;;;;;6.22;2.08;;;;;;;5.20;59.73;98990.66;4917671;29;20097;-81
2021/01/31 09:30:05;;;;;;;13.75;2.47;;;;;;;4.77;61.13;98978.75;4915828;29;20040;-79
2021/01/31 09:32:37;;;;;;;8.70;2.13;;;;;;;5.25;59.29;98979.91;4913106;29;20044;-79
2021/01/31 09:35:07;;;;;;;8.80;3.05;;;;;;;4.88;59.99;98979.84;4917456;29;20029;-80
2021/01/31 09:37:32;;;;;;;8.85;2.67;;;;;;;5.09;59.79;98978.34;4916150;29;20043;-79
2021/01/31 09:40:00;;;;;;;6.47;2.38;;;;;;;5.39;59.75;98978.97;4917191;29;20024;-79
2021/01/31 09:42:31;;;;;;;9.60;2.35;;;;;;;5.25;60.74;98977.31;4916440;29;20313;-79
2021/01/31 09:45:08;;;;;;;6.88;1.83;;;;;;;5.17;57.79;98959.63;4916948;29;20020;-79
2021/01/31 09:47:34;;;;;;;9.63;2.10;;;;;;;5.28;59.18;98969.31;4916415;29;20283;-79
2021/01/31 09:50:10;;;;;;;10.27;2.10;;;;;;;5.30;59.47;98968.25;4915901;29;20558;-80
2021/01/31 09:52:47;;;;;;;5.32;2.15;;;;;;;5.19;59.32;98962.13;4916621;29;20043;-81
2021/01/31 09:55:26;;;;;;;13.55;2.35;;;;;;;4.73;60.02;98947.88;4916671;29;20028;-80
2021/01/31 09:57:52;;;;;;;10.30;2.70;;;;;;;5.03;60.24;98952.75;4917185;29;20107;-80
2021/01/31 10:00:30;;;;;;;7.03;2.33;;;;;;;5.25;59.50;98957.34;4917417;29;20171;-80
2021/01/31 10:03:01;;;;;;;7.20;2.50;;;;;;;5.34;59.16;98958.47;4919517;29;20024;-80
2021/01/31 10:05:26;;;;;;;8.88;2.00;;;;;;;5.39;59.56;98969.41;4916425;29;20028;-81
2021/01/31 10:08:01;;;;;;;9.43;2.35;;;;;;;5.55;59.72;98966.56;4916324;29;20167;-80
2021/01/31 10:10:33;;;;;;;7.57;2.28;;;;;;;5.36;58.96;98967.81;4915296;29;20454;-81
2021/01/31 10:13:27;;;;;;;14.32;4.15;;;;;;;5.65;59.04;98951.94;4915661;29;20043;-81
2021/01/31 10:15:56;;;;;;;9.40;2.08;;;;;;;5.56;58.55;98953.41;4914344;29;20075;-80
2021/01/31 10:18:34;;;;;;;8.70;2.35;;;;;;;5.60;59.34;98943.63;4913048;29;20104;-81
2021/01/31 10:21:19;;;;;;;14.43;2.75;;;;;;;5.56;59.08;98943.00;4901241;29;20119;-80
2021/01/31 10:23:46;;;;;;;12.35;3.20;;;;;;;5.57;58.47;98933.44;4916515;29;20028;-80
2021/01/31 10:26:19;;;;;;;7.97;2.47;;;;;;;5.57;58.46;98923.84;4910174;29;20439;-81
2021/01/31 10:29:03;;;;;;;11.68;2.90;;;;;;;5.31;58.87;98927.44;4907455;29;20092;-80
2021/01/31 10:31:40;;;;;;;10.65;3.30;;;;;;;5.60;58.01;98922.78;4913135;29;20487;-80
2021/01/31 10:34:11;;;;;;;5.05;2.92;;;;;;;5.45;58.72;98924.72;4915420;29;20443;-80
2021/01/31 10:36:40;;;;;;;9.85;2.92;;;;;;;5.50;57.98;98914.78;4914224;29;20111;-81
2021/01/31 10:39:09;;;;;;;7.32;2.28;;;;;;;5.65;58.27;98914.66;4928638;29;20368;-80
2021/01/31 10:41:37;;;;;;;9.82;2.38;;;;;;;5.40;58.38;98879.94;4910260;29;20032;-80
2021/01/31 10:44:29;;;;;;;12.13;3.28;;;;;;;5.35;59.16;98887.25;4914660;29;20070;-79
2021/01/31 10:46:54;;;;;;;7.22;2.80;;;;;;;5.19;59.17;98871.88;4914046;29;20399;-80
2021/01/31 10:49:21;;;;;;;10.15;2.67;;;;;;;5.00;59.64;98854.13;4916919;29;20040;-81
2021/01/31 10:51:47;;;;;;;7.95;2.42;;;;;;;5.07;60.03;98846.72;4963265;23;20525;-81
2021/01/31 10:54:15;;;;;;;22.27;3.22;;;;;;;5.06;59.50;98848.50;4952892;29;20058;-81
2021/01/31 10:56:40;;;;;;;6.75;3.08;;;;;;;5.07;60.11;98838.91;4953006;28;20374;-81
2021/01/31 10:59:06;;;;;;;11.48;2.92;;;;;;;5.24;59.55;98832.53;4953572;29;20030;-81
2021/01/31 11:01:32;;;;;;;11.52;3.17;;;;;;;4.96;60.78;98837.09;4934544;29;20023;-81
2021/01/31 11:03:58;;;;;;;6.05;2.72;;;;;;;5.22;60.21;98842.22;4934185;29;20417;-82
2021/01/31 11:06:24;;;;;;;5.00;2.47;;;;;;;5.22;60.36;98830.03;4934340;29;20098;-81
2021/01/31 11:08:50;;;;;;;6.03;2.63;;;;;;;5.15;60.78;98816.66;4934542;29;20390;-82
2021/01/31 11:11:17;;;;;;;6.57;2.65;;;;;;;5.10;60.68;98800.50;4933909;29;20050;-83
2021/01/31 11:13:42;;;;;;;13.00;3.20;;;;;;;5.08;60.71;98801.56;4934698;29;20063;-82
2021/01/31 11:16:07;;;;;;;9.48;3.63;;;;;;;5.02;60.95;98783.81;4934028;29;20066;-83
2021/01/31 11:18:34;;;;;;;11.13;2.97;;;;;;;5.09;59.78;98772.81;4930053;29;20071;-82
2021/01/31 11:20:59;;;;;;;10.77;3.60;;;;;;;5.14;59.50;98778.53;4929194;29;20040;-83
2021/01/31 11:23:25;;;;;;;10.88;3.33;;;;;;;5.53;59.82;98779.22;4932659;29;20047;-83
2021/01/31 11:25:50;;;;;;;11.25;2.80;;;;;;;5.49;59.51;98780.38;4933483;29;20493;-82
2021/01/31 11:28:17;;;;;;;10.77;2.58;;;;;;;5.45;59.05;98763.31;4916482;29;20047;-83
2021/01/31 11:30:43;;;;;;;10.25;3.22;;;;;;;5.47;60.02;98764.03;4918128;29;20027;-82
2021/01/31 11:33:09;;;;;;;4.63;2.72;;;;;;;5.36;59.80;98753.56;4931378;29;20518;-82
2021/01/31 11:35:34;;;;;;;11.10;3.47;;;;;;;5.56;59.31;98752.94;4930877;29;20070;-83
2021/01/31 11:38:00;;;;;;;7.93;3.22;;;;;;;5.51;59.69;98752.47;4930487;29;20044;-82
2021/01/31 11:40:26;;;;;;;18.85;3.75;;;;;;;5.75;59.44;98738.56;4933704;29;20070;-83
2021/01/31 11:42:52;;;;;;;13.32;3.80;;;;;;;5.51;60.48;98736.00;4932877;29;20340;-83
2021/01/31 11:45:19;;;;;;;14.43;4.13;;;;;;;5.44;60.54;98730.41;4933609;29;20035;-82
2021/01/31 11:47:44;;;;;;;14.05;3.95;;;;;;;5.46;60.64;98728.53;4930206;29;20039;-83
2021/01/31 11:50:13;;;;;;;9.05;3.92;;;;;;;5.55;60.62;98719.22;4949474;23;20040;-79
2021/01/31 11:52:38;;;;;;;7.07;3.00;;;;;;;5.54;60.76;98720.97;4951184;28;20031;-79
2021/01/31 11:55:06;;;;;;;9.32;3.25;;;;;;;5.61;60.72;98716.16;4945156;29;20390;-79
2021/01/31 11:57:31;;;;;;;10.60;3.90;;;;;;;5.54;60.63;98700.16;4951500;28;20033;-79
2021/01/31 11:59:56;;;;;;;10.70;3.72;;;;;;;5.64;60.61;98705.50;4944325;28;20032;-80
2021/01/31 12:02:22;;;;;;;13.15;4.47;;;;;;;5.67;59.77;98694.88;4936708;29;20061;-80
2021/01/31 12:04:47;;;;;;;15.88;4.90;;;;;;;5.36;60.84;98691.94;4938009;29;20032;-79
2021/01/31 12:07:13;;;;;;;10.70;4.70;;;;;;;5.38;60.55;98684.03;4937075;29;20118;-80